sensor_id;sensor_type;location;lat;lon;timestamp;temperature;humidity
49503;DHT22;35409;48.776;9.204;2022-08-03T00:00:13;19.80;99.90
49503;DHT22;35409;48.776;9.204;2022-08-03T00:06:48;19.90;99.90
49503;DHT22;35409;48.776;9.204;2022-08-03T00:13:01;19.90;99.90
49503;DHT22;35409;48.776;9.204;2022-08-03T00:18:59;20.00;99.90
49503;DHT22;35409;48.776;9.204;2022-08-03T00:22:08;20.00;99.90
49503;DHT22;35409;48.776;9.204;2022-08-03T00:28:20;20.00;99.90
49503;DHT22;35409;48.776;9.204;2022-08-03T00:31:25;20.00;99.90
49503;DHT22;35409;48.776;9.204;2022-08-03T00:34:04;19.90;99.90
49503;DHT22;35409;48.776;9.204;2022-08-03T00:39:33;19.80;99.90
49503;DHT22;35409;48.776;9.204;2022-08-03T00:45:46;19.70;99.90
49503;DHT22;35409;48.776;9.204;2022-08-03T00:48:30;19.60;99.90
49503;DHT22;35409;48.776;9.204;2022-08-03T00:54:23;19.50;99.90
49503;DHT22;35409;48.776;9.204;2022-08-03T01:00:24;19.50;99.90
49503;DHT22;35409;48.776;9.204;2022-08-03T01:03:18;19.40;99.90
49503;DHT22;35409;48.776;9.204;2022-08-03T01:09:22;19.30;99.90
49503;DHT22;35409;48.776;9.204;2022-08-03T01:12:00;19.30;99.90
49503;DHT22;35409;48.776;9.204;2022-08-03T01:18:04;19.20;99.90
49503;DHT22;35409;48.776;9.204;2022-08-03T01:20:55;19.20;99.90
49503;DHT22;35409;48.776;9.204;2022-08-03T01:23:38;19.30;99.90
49503;DHT22;35409;48.776;9.204;2022-08-03T01:33:16;19.30;99.90
49503;DHT22;35409;48.776;9.204;2022-08-03T01:36:17;19.10;99.90
49503;DHT22;35409;48.776;9.204;2022-08-03T01:38:58;19.10;99.90
49503;DHT22;35409;48.776;9.204;2022-08-03T01:42:05;19.00;99.90
49503;DHT22;35409;48.776;9.204;2022-08-03T01:44:53;19.10;99.90
49503;DHT22;35409;48.776;9.204;2022-08-03T01:47:34;19.10;99.90
49503;DHT22;35409;48.776;9.204;2022-08-03T01:50:35;19.00;99.90
49503;DHT22;35409;48.776;9.204;2022-08-03T01:53:18;19.10;99.90
49503;DHT22;35409;48.776;9.204;2022-08-03T01:59:03;19.10;99.90
49503;DHT22;35409;48.776;9.204;2022-08-03T02:01:40;19.10;99.90
49503;DHT22;35409;48.776;9.204;2022-08-03T02:04:26;19.00;99.90
49503;DHT22;35409;48.776;9.204;2022-08-03T02:55:33;18.60;99.90
49503;DHT22;35409;48.776;9.204;2022-08-03T02:57:59;18.60;99.90
49503;DHT22;35409;48.776;9.204;2022-08-03T03:00:30;18.50;99.90
49503;DHT22;35409;48.776;9.204;2022-08-03T03:03:03;18.50;99.90
49503;DHT22;35409;48.776;9.204;2022-08-03T03:08:41;18.40;99.90
49503;DHT22;35409;48.776;9.204;2022-08-03T03:11:10;18.40;99.90
49503;DHT22;35409;48.776;9.204;2022-08-03T03:14:06;18.40;99.90
49503;DHT22;35409;48.776;9.204;2022-08-03T03:16:51;18.30;99.90
49503;DHT22;35409;48.776;9.204;2022-08-03T03:20:04;18.30;99.90
49503;DHT22;35409;48.776;9.204;2022-08-03T03:22:41;18.30;99.90
49503;DHT22;35409;48.776;9.204;2022-08-03T03:28:19;18.30;99.90
49503;DHT22;35409;48.776;9.204;2022-08-03T03:31:31;18.20;99.90
49503;DHT22;35409;48.776;9.204;2022-08-03T03:34:12;18.20;99.90
49503;DHT22;35409;48.776;9.204;2022-08-03T03:36:40;18.20;99.90
49503;DHT22;35409;48.776;9.204;2022-08-03T03:42:06;18.20;99.90
49503;DHT22;35409;48.776;9.204;2022-08-03T03:44:44;18.20;99.90
49503;DHT22;35409;48.776;9.204;2022-08-03T03:47:16;18.20;99.90
49503;DHT22;35409;48.776;9.204;2022-08-03T03:50:02;18.20;99.90
49503;DHT22;35409;48.776;9.204;2022-08-03T03:56:08;18.10;99.90
49503;DHT22;35409;48.776;9.204;2022-08-03T03:59:00;18.10;99.90
49503;DHT22;35409;48.776;9.204;2022-08-03T04:01:58;18.10;99.90
49503;DHT22;35409;48.776;9.204;2022-08-03T04:05:02;18.00;99.90
49503;DHT22;35409;48.776;9.204;2022-08-03T04:11:25;18.00;99.90
49503;DHT22;35409;48.776;9.204;2022-08-03T04:14:15;17.90;99.90
49503;DHT22;35409;48.776;9.204;2022-08-03T04:23:13;17.90;99.90
49503;DHT22;35409;48.776;9.204;2022-08-03T04:25:44;17.90;99.90
49503;DHT22;35409;48.776;9.204;2022-08-03T04:28:40;18.00;99.90
49503;DHT22;35409;48.776;9.204;2022-08-03T04:31:25;18.00;99.90
49503;DHT22;35409;48.776;9.204;2022-08-03T04:34:08;18.10;99.90
49503;DHT22;35409;48.776;9.204;2022-08-03T04:37:07;18.10;99.90
49503;DHT22;35409;48.776;9.204;2022-08-03T04:39:38;18.20;99.90
49503;DHT22;35409;48.776;9.204;2022-08-03T04:42:20;18.20;99.90
49503;DHT22;35409;48.776;9.204;2022-08-03T04:44:56;18.30;99.90
49503;DHT22;35409;48.776;9.204;2022-08-03T04:47:53;18.40;99.90
49503;DHT22;35409;48.776;9.204;2022-08-03T04:53:41;18.50;99.90
49503;DHT22;35409;48.776;9.204;2022-08-03T04:56:55;18.60;99.90
49503;DHT22;35409;48.776;9.204;2022-08-03T05:02:32;18.80;99.90
49503;DHT22;35409;48.776;9.204;2022-08-03T05:05:16;18.80;99.90
49503;DHT22;35409;48.776;9.204;2022-08-03T05:07:51;18.90;99.90
49503;DHT22;35409;48.776;9.204;2022-08-03T05:10:48;19.00;99.90
49503;DHT22;35409;48.776;9.204;2022-08-03T05:13:37;19.10;99.90
49503;DHT22;35409;48.776;9.204;2022-08-03T05:16:10;19.20;99.90
49503;DHT22;35409;48.776;9.204;2022-08-03T05:18:52;19.30;99.90
49503;DHT22;35409;48.776;9.204;2022-08-03T05:21:34;19.30;99.90
49503;DHT22;35409;48.776;9.204;2022-08-03T05:24:20;19.40;99.90
49503;DHT22;35409;48.776;9.204;2022-08-03T05:27:08;19.50;99.90
49503;DHT22;35409;48.776;9.204;2022-08-03T05:29:42;19.60;99.90
49503;DHT22;35409;48.776;9.204;2022-08-03T05:32:27;19.70;99.90
49503;DHT22;35409;48.776;9.204;2022-08-03T05:35:15;19.80;99.90
49503;DHT22;35409;48.776;9.204;2022-08-03T05:37:56;20.00;99.90
49503;DHT22;35409;48.776;9.204;2022-08-03T05:40:22;20.10;99.90
49503;DHT22;35409;48.776;9.204;2022-08-03T05:42:56;20.20;99.90
49503;DHT22;35409;48.776;9.204;2022-08-03T05:45:42;20.40;99.90
49503;DHT22;35409;48.776;9.204;2022-08-03T05:48:16;20.60;99.90
49503;DHT22;35409;48.776;9.204;2022-08-03T05:50:55;20.70;99.90
49503;DHT22;35409;48.776;9.204;2022-08-03T05:53:39;20.80;99.90
49503;DHT22;35409;48.776;9.204;2022-08-03T05:56:23;20.90;99.90
49503;DHT22;35409;48.776;9.204;2022-08-03T05:59:38;21.00;99.90
49503;DHT22;35409;48.776;9.204;2022-08-03T06:02:18;21.10;99.90
49503;DHT22;35409;48.776;9.204;2022-08-03T06:05:10;21.20;99.90
49503;DHT22;35409;48.776;9.204;2022-08-03T06:07:39;21.30;99.90
49503;DHT22;35409;48.776;9.204;2022-08-03T06:10:22;21.40;99.90
49503;DHT22;35409;48.776;9.204;2022-08-03T06:13:13;21.50;99.90
49503;DHT22;35409;48.776;9.204;2022-08-03T06:15:59;21.60;99.90
49503;DHT22;35409;48.776;9.204;2022-08-03T06:18:37;21.70;99.90
49503;DHT22;35409;48.776;9.204;2022-08-03T06:21:24;21.80;99.90
49503;DHT22;35409;48.776;9.204;2022-08-03T06:24:03;22.00;99.90
49503;DHT22;35409;48.776;9.204;2022-08-03T06:26:38;22.10;99.90
49503;DHT22;35409;48.776;9.204;2022-08-03T06:29:04;22.20;99.90
49503;DHT22;35409;48.776;9.204;2022-08-03T06:31:29;22.30;99.90
49503;DHT22;35409;48.776;9.204;2022-08-03T06:33:55;22.40;99.90
49503;DHT22;35409;48.776;9.204;2022-08-03T06:36:21;22.50;99.90
49503;DHT22;35409;48.776;9.204;2022-08-03T06:38:48;22.60;99.90
49503;DHT22;35409;48.776;9.204;2022-08-03T06:41:29;22.60;99.90
49503;DHT22;35409;48.776;9.204;2022-08-03T06:43:55;22.70;99.90
49503;DHT22;35409;48.776;9.204;2022-08-03T06:46:20;22.80;99.90
49503;DHT22;35409;48.776;9.204;2022-08-03T06:48:46;22.90;99.90
49503;DHT22;35409;48.776;9.204;2022-08-03T06:51:12;23.00;99.90
49503;DHT22;35409;48.776;9.204;2022-08-03T06:53:38;23.10;99.90
49503;DHT22;35409;48.776;9.204;2022-08-03T06:56:05;23.10;99.90
49503;DHT22;35409;48.776;9.204;2022-08-03T06:58:31;23.10;99.90
49503;DHT22;35409;48.776;9.204;2022-08-03T07:00:56;23.20;99.90
49503;DHT22;35409;48.776;9.204;2022-08-03T07:03:22;23.40;99.90
49503;DHT22;35409;48.776;9.204;2022-08-03T07:05:48;23.50;99.90
49503;DHT22;35409;48.776;9.204;2022-08-03T07:08:14;23.60;99.90
49503;DHT22;35409;48.776;9.204;2022-08-03T07:10:40;23.70;99.90
49503;DHT22;35409;48.776;9.204;2022-08-03T07:13:06;23.80;99.90
49503;DHT22;35409;48.776;9.204;2022-08-03T07:15:32;23.90;99.90
49503;DHT22;35409;48.776;9.204;2022-08-03T07:17:58;24.10;99.90
49503;DHT22;35409;48.776;9.204;2022-08-03T07:20:24;24.30;99.90
49503;DHT22;35409;48.776;9.204;2022-08-03T07:22:49;24.50;99.90
49503;DHT22;35409;48.776;9.204;2022-08-03T07:25:15;24.70;99.90
49503;DHT22;35409;48.776;9.204;2022-08-03T07:27:44;24.80;99.90
49503;DHT22;35409;48.776;9.204;2022-08-03T07:30:10;24.90;99.90
49503;DHT22;35409;48.776;9.204;2022-08-03T07:32:36;25.00;99.90
49503;DHT22;35409;48.776;9.204;2022-08-03T07:35:03;25.10;99.90
49503;DHT22;35409;48.776;9.204;2022-08-03T07:37:29;25.30;99.90
49503;DHT22;35409;48.776;9.204;2022-08-03T07:39:56;25.40;99.90
49503;DHT22;35409;48.776;9.204;2022-08-03T07:42:22;25.50;99.90
49503;DHT22;35409;48.776;9.204;2022-08-03T07:44:54;25.70;99.90
49503;DHT22;35409;48.776;9.204;2022-08-03T07:47:25;25.80;99.90
49503;DHT22;35409;48.776;9.204;2022-08-03T07:49:54;25.90;99.40
49503;DHT22;35409;48.776;9.204;2022-08-03T07:52:20;26.10;98.40
49503;DHT22;35409;48.776;9.204;2022-08-03T07:55:05;26.20;98.70
49503;DHT22;35409;48.776;9.204;2022-08-03T07:57:32;26.40;97.90
49503;DHT22;35409;48.776;9.204;2022-08-03T07:59:58;26.60;97.30
49503;DHT22;35409;48.776;9.204;2022-08-03T08:02:24;26.80;96.70
49503;DHT22;35409;48.776;9.204;2022-08-03T08:04:49;26.90;97.10
49503;DHT22;35409;48.776;9.204;2022-08-03T08:07:15;27.10;97.20
49503;DHT22;35409;48.776;9.204;2022-08-03T08:09:41;27.10;95.60
49503;DHT22;35409;48.776;9.204;2022-08-03T08:12:07;27.20;95.10
49503;DHT22;35409;48.776;9.204;2022-08-03T08:14:34;27.30;94.40
49503;DHT22;35409;48.776;9.204;2022-08-03T08:17:00;27.50;93.60
49503;DHT22;35409;48.776;9.204;2022-08-03T08:19:25;27.60;93.20
49503;DHT22;35409;48.776;9.204;2022-08-03T08:21:51;27.70;93.00
49503;DHT22;35409;48.776;9.204;2022-08-03T08:24:17;27.80;92.10
49503;DHT22;35409;48.776;9.204;2022-08-03T08:26:42;27.90;92.00
49503;DHT22;35409;48.776;9.204;2022-08-03T08:29:08;28.00;91.10
49503;DHT22;35409;48.776;9.204;2022-08-03T08:31:33;28.10;91.10
49503;DHT22;35409;48.776;9.204;2022-08-03T08:33:59;28.20;90.90
49503;DHT22;35409;48.776;9.204;2022-08-03T08:36:35;28.30;90.70
49503;DHT22;35409;48.776;9.204;2022-08-03T08:39:01;28.40;90.60
49503;DHT22;35409;48.776;9.204;2022-08-03T08:41:27;28.60;89.80
49503;DHT22;35409;48.776;9.204;2022-08-03T08:43:54;28.70;88.20
49503;DHT22;35409;48.776;9.204;2022-08-03T08:46:20;28.90;87.30
49503;DHT22;35409;48.776;9.204;2022-08-03T08:48:47;29.00;86.40
49503;DHT22;35409;48.776;9.204;2022-08-03T08:51:15;29.10;84.90
49503;DHT22;35409;48.776;9.204;2022-08-03T08:53:46;29.20;84.40
49503;DHT22;35409;48.776;9.204;2022-08-03T08:56:13;29.30;84.00
49503;DHT22;35409;48.776;9.204;2022-08-03T08:58:50;29.40;84.20
49503;DHT22;35409;48.776;9.204;2022-08-03T09:01:17;29.50;82.10
49503;DHT22;35409;48.776;9.204;2022-08-03T09:03:45;29.60;81.90
49503;DHT22;35409;48.776;9.204;2022-08-03T09:06:10;29.60;80.90
49503;DHT22;35409;48.776;9.204;2022-08-03T09:08:36;29.60;80.60
49503;DHT22;35409;48.776;9.204;2022-08-03T09:11:02;29.70;80.50
49503;DHT22;35409;48.776;9.204;2022-08-03T09:13:28;29.80;79.40
49503;DHT22;35409;48.776;9.204;2022-08-03T09:16:18;29.90;79.00
49503;DHT22;35409;48.776;9.204;2022-08-03T09:18:45;30.00;78.00
49503;DHT22;35409;48.776;9.204;2022-08-03T09:21:13;30.00;76.90
49503;DHT22;35409;48.776;9.204;2022-08-03T09:23:50;30.10;76.90
49503;DHT22;35409;48.776;9.204;2022-08-03T09:26:36;30.10;76.80
49503;DHT22;35409;48.776;9.204;2022-08-03T09:29:07;30.20;75.50
49503;DHT22;35409;48.776;9.204;2022-08-03T09:31:33;30.20;75.50
49503;DHT22;35409;48.776;9.204;2022-08-03T09:34:08;30.40;74.60
49503;DHT22;35409;48.776;9.204;2022-08-03T09:36:37;30.50;75.20
49503;DHT22;35409;48.776;9.204;2022-08-03T09:39:11;30.60;75.00
49503;DHT22;35409;48.776;9.204;2022-08-03T09:41:45;30.70;74.90
49503;DHT22;35409;48.776;9.204;2022-08-03T09:44:11;30.90;73.40
49503;DHT22;35409;48.776;9.204;2022-08-03T09:46:55;31.00;72.70
49503;DHT22;35409;48.776;9.204;2022-08-03T09:49:21;31.20;73.10
49503;DHT22;35409;48.776;9.204;2022-08-03T09:51:47;31.30;71.60
49503;DHT22;35409;48.776;9.204;2022-08-03T09:54:25;31.30;70.20
49503;DHT22;35409;48.776;9.204;2022-08-03T09:56:51;31.40;68.40
49503;DHT22;35409;48.776;9.204;2022-08-03T09:59:29;31.60;67.30
49503;DHT22;35409;48.776;9.204;2022-08-03T10:01:56;31.60;67.50
49503;DHT22;35409;48.776;9.204;2022-08-03T10:04:23;31.70;67.90
49503;DHT22;35409;48.776;9.204;2022-08-03T10:07:22;31.80;66.30
49503;DHT22;35409;48.776;9.204;2022-08-03T10:09:57;31.90;65.70
49503;DHT22;35409;48.776;9.204;2022-08-03T10:12:23;32.00;65.50
49503;DHT22;35409;48.776;9.204;2022-08-03T10:14:50;32.00;65.90
49503;DHT22;35409;48.776;9.204;2022-08-03T10:17:17;32.00;65.40
49503;DHT22;35409;48.776;9.204;2022-08-03T10:19:42;31.90;65.60
49503;DHT22;35409;48.776;9.204;2022-08-03T10:22:12;31.90;65.70
49503;DHT22;35409;48.776;9.204;2022-08-03T10:24:58;31.90;65.70
49503;DHT22;35409;48.776;9.204;2022-08-03T10:27:41;31.80;65.70
49503;DHT22;35409;48.776;9.204;2022-08-03T10:30:11;31.90;65.50
49503;DHT22;35409;48.776;9.204;2022-08-03T10:32:51;32.10;64.70
49503;DHT22;35409;48.776;9.204;2022-08-03T10:35:19;32.30;63.70
49503;DHT22;35409;48.776;9.204;2022-08-03T10:37:51;32.30;63.90
49503;DHT22;35409;48.776;9.204;2022-08-03T10:40:17;32.40;63.20
49503;DHT22;35409;48.776;9.204;2022-08-03T10:42:46;32.50;62.30
49503;DHT22;35409;48.776;9.204;2022-08-03T10:45:25;32.50;63.00
49503;DHT22;35409;48.776;9.204;2022-08-03T10:47:52;32.50;63.00
49503;DHT22;35409;48.776;9.204;2022-08-03T10:50:20;32.60;62.60
49503;DHT22;35409;48.776;9.204;2022-08-03T10:53:01;32.70;63.20
49503;DHT22;35409;48.776;9.204;2022-08-03T10:55:34;32.80;63.20
49503;DHT22;35409;48.776;9.204;2022-08-03T11:01:07;32.90;62.40
49503;DHT22;35409;48.776;9.204;2022-08-03T11:03:33;32.80;62.60
49503;DHT22;35409;48.776;9.204;2022-08-03T11:06:21;32.90;62.70
49503;DHT22;35409;48.776;9.204;2022-08-03T11:08:48;33.00;62.10
49503;DHT22;35409;48.776;9.204;2022-08-03T11:14:05;33.10;61.70
49503;DHT22;35409;48.776;9.204;2022-08-03T11:19:09;33.20;61.10
49503;DHT22;35409;48.776;9.204;2022-08-03T11:27:20;33.20;60.60
49503;DHT22;35409;48.776;9.204;2022-08-03T11:46:04;33.30;60.10
49503;DHT22;35409;48.776;9.204;2022-08-03T11:48:35;33.30;60.10
49503;DHT22;35409;48.776;9.204;2022-08-03T11:51:03;33.40;59.90
49503;DHT22;35409;48.776;9.204;2022-08-03T11:53:30;33.50;60.00
49503;DHT22;35409;48.776;9.204;2022-08-03T11:56:00;33.70;59.50
49503;DHT22;35409;48.776;9.204;2022-08-03T11:58:29;33.70;59.50
49503;DHT22;35409;48.776;9.204;2022-08-03T12:01:05;33.80;59.60
49503;DHT22;35409;48.776;9.204;2022-08-03T12:03:33;33.90;58.70
49503;DHT22;35409;48.776;9.204;2022-08-03T12:05:59;34.10;59.10
49503;DHT22;35409;48.776;9.204;2022-08-03T12:08:32;34.30;58.80
49503;DHT22;35409;48.776;9.204;2022-08-03T12:11:03;34.50;58.10
49503;DHT22;35409;48.776;9.204;2022-08-03T12:13:45;34.50;58.10
49503;DHT22;35409;48.776;9.204;2022-08-03T12:16:19;34.60;58.10
49503;DHT22;35409;48.776;9.204;2022-08-03T12:18:59;34.60;58.50
49503;DHT22;35409;48.776;9.204;2022-08-03T12:21:25;34.70;58.60
49503;DHT22;35409;48.776;9.204;2022-08-03T12:23:56;34.80;57.80
49503;DHT22;35409;48.776;9.204;2022-08-03T12:26:25;34.80;57.60
49503;DHT22;35409;48.776;9.204;2022-08-03T12:28:51;34.70;57.80
49503;DHT22;35409;48.776;9.204;2022-08-03T12:31:16;34.70;57.90
49503;DHT22;35409;48.776;9.204;2022-08-03T12:34:00;34.80;57.90
49503;DHT22;35409;48.776;9.204;2022-08-03T12:36:32;34.90;57.40
49503;DHT22;35409;48.776;9.204;2022-08-03T12:39:01;35.10;56.90
49503;DHT22;35409;48.776;9.204;2022-08-03T12:41:35;35.10;56.70
49503;DHT22;35409;48.776;9.204;2022-08-03T12:44:05;35.20;57.20
49503;DHT22;35409;48.776;9.204;2022-08-03T12:46:33;35.40;56.60
49503;DHT22;35409;48.776;9.204;2022-08-03T12:49:08;35.50;55.90
49503;DHT22;35409;48.776;9.204;2022-08-03T12:51:56;35.50;55.90
49503;DHT22;35409;48.776;9.204;2022-08-03T12:54:27;35.40;56.30
49503;DHT22;35409;48.776;9.204;2022-08-03T12:57:12;35.40;56.30
49503;DHT22;35409;48.776;9.204;2022-08-03T12:59:42;35.40;55.80
49503;DHT22;35409;48.776;9.204;2022-08-03T13:02:15;35.30;55.80
49503;DHT22;35409;48.776;9.204;2022-08-03T13:04:42;35.30;56.80
49503;DHT22;35409;48.776;9.204;2022-08-03T13:07:09;35.30;56.20
49503;DHT22;35409;48.776;9.204;2022-08-03T13:09:52;35.40;56.20
49503;DHT22;35409;48.776;9.204;2022-08-03T13:12:19;35.50;56.30
49503;DHT22;35409;48.776;9.204;2022-08-03T13:14:48;35.70;55.80
49503;DHT22;35409;48.776;9.204;2022-08-03T13:17:14;35.70;55.60
49503;DHT22;35409;48.776;9.204;2022-08-03T13:19:44;35.80;55.30
49503;DHT22;35409;48.776;9.204;2022-08-03T13:22:18;36.00;55.10
49503;DHT22;35409;48.776;9.204;2022-08-03T13:24:44;36.00;55.20
49503;DHT22;35409;48.776;9.204;2022-08-03T13:27:11;36.10;54.60
49503;DHT22;35409;48.776;9.204;2022-08-03T13:29:37;36.00;54.70
49503;DHT22;35409;48.776;9.204;2022-08-03T13:32:03;36.00;54.50
49503;DHT22;35409;48.776;9.204;2022-08-03T13:34:29;36.00;54.70
49503;DHT22;35409;48.776;9.204;2022-08-03T13:36:54;36.00;54.50
49503;DHT22;35409;48.776;9.204;2022-08-03T13:39:20;36.20;54.20
49503;DHT22;35409;48.776;9.204;2022-08-03T13:41:46;36.30;54.10
49503;DHT22;35409;48.776;9.204;2022-08-03T13:44:12;36.30;54.00
49503;DHT22;35409;48.776;9.204;2022-08-03T13:46:37;36.30;54.20
49503;DHT22;35409;48.776;9.204;2022-08-03T13:49:04;36.40;54.50
49503;DHT22;35409;48.776;9.204;2022-08-03T13:51:30;36.40;54.00
49503;DHT22;35409;48.776;9.204;2022-08-03T13:53:55;36.50;54.10
49503;DHT22;35409;48.776;9.204;2022-08-03T13:56:26;36.60;54.00
49503;DHT22;35409;48.776;9.204;2022-08-03T13:58:53;36.70;53.50
49503;DHT22;35409;48.776;9.204;2022-08-03T14:01:18;36.70;53.80
49503;DHT22;35409;48.776;9.204;2022-08-03T14:03:44;36.70;53.60
49503;DHT22;35409;48.776;9.204;2022-08-03T14:06:13;36.80;53.50
49503;DHT22;35409;48.776;9.204;2022-08-03T14:08:39;36.70;53.60
49503;DHT22;35409;48.776;9.204;2022-08-03T14:11:04;36.60;53.20
49503;DHT22;35409;48.776;9.204;2022-08-03T14:13:30;36.50;53.20
49503;DHT22;35409;48.776;9.204;2022-08-03T14:15:56;36.30;53.00
49503;DHT22;35409;48.776;9.204;2022-08-03T14:18:23;36.20;53.30
49503;DHT22;35409;48.776;9.204;2022-08-03T14:20:48;36.10;53.80
49503;DHT22;35409;48.776;9.204;2022-08-03T14:23:14;36.20;53.40
49503;DHT22;35409;48.776;9.204;2022-08-03T14:25:40;36.30;53.50
49503;DHT22;35409;48.776;9.204;2022-08-03T14:28:06;36.50;53.80
49503;DHT22;35409;48.776;9.204;2022-08-03T14:30:33;36.60;53.20
49503;DHT22;35409;48.776;9.204;2022-08-03T14:32:59;36.70;54.20
49503;DHT22;35409;48.776;9.204;2022-08-03T14:35:24;36.70;53.20
49503;DHT22;35409;48.776;9.204;2022-08-03T14:37:50;36.90;53.20
49503;DHT22;35409;48.776;9.204;2022-08-03T14:40:19;37.00;52.70
49503;DHT22;35409;48.776;9.204;2022-08-03T14:42:45;37.10;52.70
49503;DHT22;35409;48.776;9.204;2022-08-03T14:45:11;37.40;52.10
49503;DHT22;35409;48.776;9.204;2022-08-03T14:47:38;37.60;52.30
49503;DHT22;35409;48.776;9.204;2022-08-03T14:50:04;38.00;51.50
49503;DHT22;35409;48.776;9.204;2022-08-03T14:52:30;38.20;51.40
49503;DHT22;35409;48.776;9.204;2022-08-03T14:54:57;38.30;50.60
49503;DHT22;35409;48.776;9.204;2022-08-03T14:57:23;38.40;50.50
49503;DHT22;35409;48.776;9.204;2022-08-03T14:59:49;38.60;50.40
49503;DHT22;35409;48.776;9.204;2022-08-03T15:02:14;38.60;50.00
49503;DHT22;35409;48.776;9.204;2022-08-03T15:04:41;38.60;50.20
49503;DHT22;35409;48.776;9.204;2022-08-03T15:07:07;38.90;49.80
49503;DHT22;35409;48.776;9.204;2022-08-03T15:09:35;39.00;49.10
49503;DHT22;35409;48.776;9.204;2022-08-03T15:12:06;39.10;48.80
49503;DHT22;35409;48.776;9.204;2022-08-03T15:14:31;39.10;48.90
49503;DHT22;35409;48.776;9.204;2022-08-03T15:16:57;39.20;48.80
49503;DHT22;35409;48.776;9.204;2022-08-03T15:19:23;39.10;48.60
49503;DHT22;35409;48.776;9.204;2022-08-03T15:21:50;39.10;48.70
49503;DHT22;35409;48.776;9.204;2022-08-03T15:24:17;39.10;48.80
49503;DHT22;35409;48.776;9.204;2022-08-03T15:26:42;39.10;48.40
49503;DHT22;35409;48.776;9.204;2022-08-03T15:29:08;39.10;48.50
49503;DHT22;35409;48.776;9.204;2022-08-03T15:31:34;39.10;48.40
49503;DHT22;35409;48.776;9.204;2022-08-03T15:33:59;39.10;47.90
49503;DHT22;35409;48.776;9.204;2022-08-03T15:36:25;39.00;48.30
49503;DHT22;35409;48.776;9.204;2022-08-03T15:38:51;39.00;48.00
49503;DHT22;35409;48.776;9.204;2022-08-03T15:41:17;39.00;48.40
49503;DHT22;35409;48.776;9.204;2022-08-03T15:43:43;39.00;48.20
49503;DHT22;35409;48.776;9.204;2022-08-03T15:46:11;38.80;48.30
49503;DHT22;35409;48.776;9.204;2022-08-03T15:48:37;38.90;48.50
49503;DHT22;35409;48.776;9.204;2022-08-03T15:51:04;38.90;47.80
49503;DHT22;35409;48.776;9.204;2022-08-03T15:53:30;38.90;48.20
49503;DHT22;35409;48.776;9.204;2022-08-03T15:55:55;39.00;48.90
49503;DHT22;35409;48.776;9.204;2022-08-03T15:58:21;38.90;48.30
49503;DHT22;35409;48.776;9.204;2022-08-03T16:00:47;38.90;47.90
49503;DHT22;35409;48.776;9.204;2022-08-03T16:03:12;38.80;48.10
49503;DHT22;35409;48.776;9.204;2022-08-03T16:05:38;38.70;48.20
49503;DHT22;35409;48.776;9.204;2022-08-03T16:08:04;38.60;48.20
49503;DHT22;35409;48.776;9.204;2022-08-03T16:10:29;38.50;48.20
49503;DHT22;35409;48.776;9.204;2022-08-03T16:12:56;38.70;47.90
49503;DHT22;35409;48.776;9.204;2022-08-03T16:15:25;38.70;47.50
49503;DHT22;35409;48.776;9.204;2022-08-03T16:17:50;38.70;47.70
49503;DHT22;35409;48.776;9.204;2022-08-03T16:20:16;38.80;47.40
49503;DHT22;35409;48.776;9.204;2022-08-03T16:22:46;38.80;47.10
49503;DHT22;35409;48.776;9.204;2022-08-03T16:25:14;38.70;47.10
49503;DHT22;35409;48.776;9.204;2022-08-03T16:27:40;38.60;47.40
49503;DHT22;35409;48.776;9.204;2022-08-03T16:30:07;38.50;47.50
49503;DHT22;35409;48.776;9.204;2022-08-03T16:32:33;38.50;47.60
49503;DHT22;35409;48.776;9.204;2022-08-03T16:34:59;38.40;47.80
49503;DHT22;35409;48.776;9.204;2022-08-03T16:37:26;38.50;47.20
49503;DHT22;35409;48.776;9.204;2022-08-03T16:39:51;38.30;47.60
49503;DHT22;35409;48.776;9.204;2022-08-03T16:42:17;37.90;47.90
49503;DHT22;35409;48.776;9.204;2022-08-03T16:44:43;37.50;48.40
49503;DHT22;35409;48.776;9.204;2022-08-03T16:47:08;37.10;48.90
49503;DHT22;35409;48.776;9.204;2022-08-03T16:49:34;36.70;49.00
49503;DHT22;35409;48.776;9.204;2022-08-03T16:52:00;36.40;49.10
49503;DHT22;35409;48.776;9.204;2022-08-03T16:54:25;35.90;49.40
49503;DHT22;35409;48.776;9.204;2022-08-03T16:56:51;35.50;50.80
49503;DHT22;35409;48.776;9.204;2022-08-03T16:59:17;35.10;50.50
49503;DHT22;35409;48.776;9.204;2022-08-03T17:01:45;34.80;50.60
49503;DHT22;35409;48.776;9.204;2022-08-03T17:04:11;34.60;51.00
49503;DHT22;35409;48.776;9.204;2022-08-03T17:06:39;34.40;51.60
49503;DHT22;35409;48.776;9.204;2022-08-03T17:09:11;34.20;51.80
49503;DHT22;35409;48.776;9.204;2022-08-03T17:11:42;34.00;51.90
49503;DHT22;35409;48.776;9.204;2022-08-03T17:14:08;33.80;52.10
49503;DHT22;35409;48.776;9.204;2022-08-03T17:16:34;33.60;52.30
49503;DHT22;35409;48.776;9.204;2022-08-03T17:19:04;33.50;52.80
49503;DHT22;35409;48.776;9.204;2022-08-03T17:21:32;33.30;53.10
49503;DHT22;35409;48.776;9.204;2022-08-03T17:26:49;33.10;53.50
49503;DHT22;35409;48.776;9.204;2022-08-03T17:29:22;32.90;53.50
49503;DHT22;35409;48.776;9.204;2022-08-03T17:31:50;32.80;53.80
49503;DHT22;35409;48.776;9.204;2022-08-03T17:34:17;32.80;53.90
49503;DHT22;35409;48.776;9.204;2022-08-03T17:36:43;32.70;54.00
49503;DHT22;35409;48.776;9.204;2022-08-03T17:39:13;32.60;54.30
49503;DHT22;35409;48.776;9.204;2022-08-03T17:41:39;32.50;54.20
49503;DHT22;35409;48.776;9.204;2022-08-03T17:44:06;32.50;54.70
49503;DHT22;35409;48.776;9.204;2022-08-03T17:46:32;32.40;53.80
49503;DHT22;35409;48.776;9.204;2022-08-03T17:48:58;32.30;54.10
49503;DHT22;35409;48.776;9.204;2022-08-03T17:51:48;32.20;55.00
49503;DHT22;35409;48.776;9.204;2022-08-03T17:54:46;32.10;54.90
49503;DHT22;35409;48.776;9.204;2022-08-03T17:57:30;32.00;55.10
49503;DHT22;35409;48.776;9.204;2022-08-03T18:00:10;31.90;55.70
49503;DHT22;35409;48.776;9.204;2022-08-03T18:05:57;31.70;56.40
49503;DHT22;35409;48.776;9.204;2022-08-03T18:08:30;31.60;56.70
49503;DHT22;35409;48.776;9.204;2022-08-03T18:11:01;31.50;57.60
49503;DHT22;35409;48.776;9.204;2022-08-03T18:13:30;31.40;58.70
49503;DHT22;35409;48.776;9.204;2022-08-03T18:16:03;31.30;60.20
49503;DHT22;35409;48.776;9.204;2022-08-03T18:18:37;31.20;60.40
49503;DHT22;35409;48.776;9.204;2022-08-03T18:21:06;31.00;60.60
49503;DHT22;35409;48.776;9.204;2022-08-03T18:23:32;30.90;61.00
49503;DHT22;35409;48.776;9.204;2022-08-03T18:25:59;30.70;61.40
49503;DHT22;35409;48.776;9.204;2022-08-03T18:28:26;30.60;62.00
49503;DHT22;35409;48.776;9.204;2022-08-03T18:30:52;30.40;62.20
49503;DHT22;35409;48.776;9.204;2022-08-03T18:33:18;30.30;62.40
49503;DHT22;35409;48.776;9.204;2022-08-03T18:35:44;30.10;62.80
49503;DHT22;35409;48.776;9.204;2022-08-03T18:38:12;30.00;63.00
49503;DHT22;35409;48.776;9.204;2022-08-03T18:40:44;29.80;63.30